sensor_id;sensor_type;location;lat;lon;timestamp;pressure;altitude;pressure_sealevel;temperature;humidity
61870;BME280;47810;42.264;23.826;2023-07-13T00:01:58;94090.91;;;22.59;50.45
61870;BME280;47810;42.264;23.826;2023-07-13T00:04:25;94089.69;;;22.37;51.54
61870;BME280;47810;42.264;23.826;2023-07-13T00:06:51;94097.75;;;22.37;52.23
61870;BME280;47810;42.264;23.826;2023-07-13T00:09:17;94095.25;;;22.36;50.94
61870;BME280;47810;42.264;23.826;2023-07-13T00:11:43;94089.22;;;22.42;49.39
61870;BME280;47810;42.264;23.826;2023-07-13T00:14:10;94086.84;;;22.47;51.53
61870;BME280;47810;42.264;23.826;2023-07-13T00:16:42;94087.53;;;22.49;51.27
61870;BME280;47810;42.264;23.826;2023-07-13T00:19:11;94078.56;;;22.24;51.13
61870;BME280;47810;42.264;23.826;2023-07-13T00:21:38;94067.81;;;22.24;49.43
61870;BME280;47810;42.264;23.826;2023-07-13T00:24:04;94070.00;;;22.20;53.14
61870;BME280;47810;42.264;23.826;2023-07-13T00:26:31;94070.84;;;22.21;53.60
61870;BME280;47810;42.264;23.826;2023-07-13T00:28:59;94069.78;;;22.14;53.92
61870;BME280;47810;42.264;23.826;2023-07-13T00:31:25;94068.13;;;22.13;54.31
61870;BME280;47810;42.264;23.826;2023-07-13T00:33:54;94063.06;;;22.09;53.82
61870;BME280;47810;42.264;23.826;2023-07-13T00:36:21;94065.06;;;22.07;54.62
61870;BME280;47810;42.264;23.826;2023-07-13T00:38:48;94065.06;;;22.07;54.85
61870;BME280;47810;42.264;23.826;2023-07-13T00:41:14;94062.38;;;21.99;55.39
61870;BME280;47810;42.264;23.826;2023-07-13T00:43:52;94065.06;;;22.07;54.90
61870;BME280;47810;42.264;23.826;2023-07-13T00:46:21;94059.00;;;21.97;55.08
61870;BME280;47810;42.264;23.826;2023-07-13T00:48:48;94054.09;;;21.84;55.45
61870;BME280;47810;42.264;23.826;2023-07-13T00:51:17;94056.75;;;21.76;56.74
61870;BME280;47810;42.264;23.826;2023-07-13T00:53:46;94052.03;;;21.70;57.16
61870;BME280;47810;42.264;23.826;2023-07-13T00:58:42;94045.66;;;21.79;56.11
61870;BME280;47810;42.264;23.826;2023-07-13T01:01:08;94042.81;;;21.81;56.04
61870;BME280;47810;42.264;23.826;2023-07-13T01:03:34;94042.47;;;21.68;56.44
61870;BME280;47810;42.264;23.826;2023-07-13T01:08:30;94054.44;;;21.39;56.08
61870;BME280;47810;42.264;23.826;2023-07-13T01:10:56;94054.44;;;21.39;58.05
61870;BME280;47810;42.264;23.826;2023-07-13T01:13:23;94052.09;;;21.44;56.68
61870;BME280;47810;42.264;23.826;2023-07-13T01:15:51;94042.00;;;21.38;56.99
61870;BME280;47810;42.264;23.826;2023-07-13T01:18:25;94034.31;;;21.17;57.71
61870;BME280;47810;42.264;23.826;2023-07-13T01:20:53;94032.44;;;21.09;57.91
61870;BME280;47810;42.264;23.826;2023-07-13T01:23:19;94030.16;;;21.23;57.58
61870;BME280;47810;42.264;23.826;2023-07-13T01:25:45;94036.16;;;21.16;58.72
61870;BME280;47810;42.264;23.826;2023-07-13T01:28:12;94034.00;;;21.20;57.91
61870;BME280;47810;42.264;23.826;2023-07-13T01:30:41;94031.13;;;21.22;58.89
61870;BME280;47810;42.264;23.826;2023-07-13T01:33:13;94036.69;;;21.28;57.37
61870;BME280;47810;42.264;23.826;2023-07-13T01:35:40;94042.25;;;21.27;58.86
61870;BME280;47810;42.264;23.826;2023-07-13T01:38:08;94039.03;;;21.23;58.93
61870;BME280;47810;42.264;23.826;2023-07-13T01:40:34;94043.81;;;21.03;58.99
61870;BME280;47810;42.264;23.826;2023-07-13T01:43:02;94037.66;;;20.85;60.25
61870;BME280;47810;42.264;23.826;2023-07-13T01:45:30;94038.03;;;20.90;60.02
61870;BME280;47810;42.264;23.826;2023-07-13T01:47:56;94048.44;;;20.93;60.48
61870;BME280;47810;42.264;23.826;2023-07-13T01:50:22;94039.50;;;20.84;60.22
61870;BME280;47810;42.264;23.826;2023-07-13T01:52:50;94044.34;;;20.81;60.64
61870;BME280;47810;42.264;23.826;2023-07-13T01:55:15;94039.38;;;20.94;59.50
61870;BME280;47810;42.264;23.826;2023-07-13T01:57:43;94039.22;;;20.96;58.55
61870;BME280;47810;42.264;23.826;2023-07-13T02:00:10;94039.84;;;20.89;58.71
61870;BME280;47810;42.264;23.826;2023-07-13T02:02:36;94044.44;;;20.97;57.71
61870;BME280;47810;42.264;23.826;2023-07-13T02:05:02;94041.59;;;20.99;57.02
61870;BME280;47810;42.264;23.826;2023-07-13T02:10:00;94048.75;;;20.90;57.75
61870;BME280;47810;42.264;23.826;2023-07-13T02:12:25;94048.69;;;20.82;58.46
61870;BME280;47810;42.264;23.826;2023-07-13T02:14:51;94047.47;;;20.76;58.18
61870;BME280;47810;42.264;23.826;2023-07-13T02:17:17;94048.31;;;20.77;55.30
61870;BME280;47810;42.264;23.826;2023-07-13T02:19:43;94051.78;;;20.95;54.35
61870;BME280;47810;42.264;23.826;2023-07-13T02:22:09;94050.75;;;20.88;54.16
61870;BME280;47810;42.264;23.826;2023-07-13T02:24:37;94060.47;;;20.89;55.47
61870;BME280;47810;42.264;23.826;2023-07-13T02:27:03;94055.13;;;20.89;54.23
61870;BME280;47810;42.264;23.826;2023-07-13T02:29:29;94058.22;;;21.02;55.48
61870;BME280;47810;42.264;23.826;2023-07-13T02:31:55;94049.91;;;21.13;55.83
61870;BME280;47810;42.264;23.826;2023-07-13T02:37:01;94049.41;;;21.18;53.26
61870;BME280;47810;42.264;23.826;2023-07-13T02:39:27;94051.25;;;21.17;54.73
61870;BME280;47810;42.264;23.826;2023-07-13T02:41:53;94045.81;;;21.01;54.57
61870;BME280;47810;42.264;23.826;2023-07-13T02:44:19;94053.91;;;21.09;55.36
61870;BME280;47810;42.264;23.826;2023-07-13T02:46:45;94049.91;;;21.13;55.56
61870;BME280;47810;42.264;23.826;2023-07-13T02:49:11;94056.94;;;21.14;55.22
61870;BME280;47810;42.264;23.826;2023-07-13T02:51:40;94066.16;;;21.12;54.12
61870;BME280;47810;42.264;23.826;2023-07-13T02:56:38;94070.47;;;21.31;54.44
61870;BME280;47810;42.264;23.826;2023-07-13T02:59:05;94066.31;;;21.10;56.75
61870;BME280;47810;42.264;23.826;2023-07-13T03:01:31;94065.59;;;21.00;58.11
61870;BME280;47810;42.264;23.826;2023-07-13T03:03:58;94064.19;;;20.88;57.92
61870;BME280;47810;42.264;23.826;2023-07-13T03:06:24;94067.78;;;20.79;59.98
61870;BME280;47810;42.264;23.826;2023-07-13T03:08:50;94065.44;;;20.76;58.62
61870;BME280;47810;42.264;23.826;2023-07-13T03:11:19;94064.34;;;21.12;54.68
61870;BME280;47810;42.264;23.826;2023-07-13T03:13:45;94068.28;;;21.00;56.94
61870;BME280;47810;42.264;23.826;2023-07-13T03:16:11;94072.34;;;21.04;56.26
61870;BME280;47810;42.264;23.826;2023-07-13T03:21:06;94062.53;;;20.95;57.02
61870;BME280;47810;42.264;23.826;2023-07-13T03:23:31;94067.81;;;21.05;56.42
61870;BME280;47810;42.264;23.826;2023-07-13T03:28:51;94062.63;;;20.59;60.18
61870;BME280;47810;42.264;23.826;2023-07-13T03:31:23;94055.13;;;20.45;58.45
61870;BME280;47810;42.264;23.826;2023-07-13T03:33:49;94062.69;;;20.50;60.01
61870;BME280;47810;42.264;23.826;2023-07-13T03:38:49;94055.13;;;20.45;61.15
61870;BME280;47810;42.264;23.826;2023-07-13T03:43:47;94059.94;;;20.59;61.78
61870;BME280;47810;42.264;23.826;2023-07-13T03:46:16;94061.91;;;20.57;61.66
61870;BME280;47810;42.264;23.826;2023-07-13T03:51:28;94063.38;;;20.69;61.85
61870;BME280;47810;42.264;23.826;2023-07-13T03:54:08;94063.88;;;20.73;60.51
61870;BME280;47810;42.264;23.826;2023-07-13T03:59:29;94069.00;;;21.10;57.01
61870;BME280;47810;42.264;23.826;2023-07-13T04:01:55;94069.97;;;21.01;57.32
61870;BME280;47810;42.264;23.826;2023-07-13T04:04:30;94067.06;;;20.94;58.56
61870;BME280;47810;42.264;23.826;2023-07-13T04:07:09;94059.72;;;20.97;59.25
61870;BME280;47810;42.264;23.826;2023-07-13T04:09:49;94062.28;;;21.06;60.59
61870;BME280;47810;42.264;23.826;2023-07-13T04:17:31;94059.38;;;21.26;58.80
61870;BME280;47810;42.264;23.826;2023-07-13T04:19:56;94054.00;;;21.26;63.52
61870;BME280;47810;42.264;23.826;2023-07-13T04:22:24;94058.53;;;21.25;61.14
61870;BME280;47810;42.264;23.826;2023-07-13T04:27:32;94068.19;;;21.36;62.92
61870;BME280;47810;42.264;23.826;2023-07-13T04:29:59;94066.53;;;21.43;64.48
61870;BME280;47810;42.264;23.826;2023-07-13T04:32:25;94066.25;;;21.54;62.97
61870;BME280;47810;42.264;23.826;2023-07-13T04:37:34;94061.59;;;21.73;61.48
61870;BME280;47810;42.264;23.826;2023-07-13T04:40:00;94059.97;;;21.88;61.86
61870;BME280;47810;42.264;23.826;2023-07-13T04:42:26;94069.91;;;21.96;61.39
61870;BME280;47810;42.264;23.826;2023-07-13T04:44:53;94071.66;;;22.13;61.25
61870;BME280;47810;42.264;23.826;2023-07-13T04:47:18;94072.34;;;22.15;61.45
61870;BME280;47810;42.264;23.826;2023-07-13T04:49:45;94072.06;;;22.35;61.00
61870;BME280;47810;42.264;23.826;2023-07-13T04:52:12;94066.34;;;22.38;61.22
61870;BME280;47810;42.264;23.826;2023-07-13T04:54:39;94067.16;;;22.46;61.25
61870;BME280;47810;42.264;23.826;2023-07-13T04:57:06;94064.66;;;22.53;61.92
61870;BME280;47810;42.264;23.826;2023-07-13T04:59:32;94062.81;;;22.62;61.12
61870;BME280;47810;42.264;23.826;2023-07-13T05:01:57;94067.34;;;22.61;61.72
61870;BME280;47810;42.264;23.826;2023-07-13T05:11:54;94055.38;;;22.88;62.54
61870;BME280;47810;42.264;23.826;2023-07-13T05:14:22;94066.84;;;22.90;62.48
61870;BME280;47810;42.264;23.826;2023-07-13T05:16:49;94069.34;;;22.92;61.10
61870;BME280;47810;42.264;23.826;2023-07-13T05:19:18;94069.91;;;22.95;60.73
61870;BME280;47810;42.264;23.826;2023-07-13T05:24:12;94074.91;;;22.98;59.40
61870;BME280;47810;42.264;23.826;2023-07-13T05:29:08;94066.00;;;22.98;60.26
61870;BME280;47810;42.264;23.826;2023-07-13T05:31:38;94076.28;;;23.02;60.80
61870;BME280;47810;42.264;23.826;2023-07-13T05:34:04;94070.88;;;23.11;59.54
61870;BME280;47810;42.264;23.826;2023-07-13T05:36:30;94080.66;;;23.12;60.77
61870;BME280;47810;42.264;23.826;2023-07-13T05:38:56;94083.31;;;23.20;60.88
61870;BME280;47810;42.264;23.826;2023-07-13T05:41:23;94087.03;;;23.19;60.63
61870;BME280;47810;42.264;23.826;2023-07-13T05:43:48;94095.75;;;23.21;60.34
61870;BME280;47810;42.264;23.826;2023-07-13T05:46:15;94094.59;;;23.23;60.46
61870;BME280;47810;42.264;23.826;2023-07-13T05:48:45;94099.47;;;23.28;61.08
61870;BME280;47810;42.264;23.826;2023-07-13T05:51:10;94095.59;;;23.31;60.89
61870;BME280;47810;42.264;23.826;2023-07-13T05:53:37;94102.47;;;23.41;61.49
61870;BME280;47810;42.264;23.826;2023-07-13T05:56:03;94101.09;;;23.54;60.49
61870;BME280;47810;42.264;23.826;2023-07-13T05:58:37;94101.09;;;23.54;60.72
61870;BME280;47810;42.264;23.826;2023-07-13T06:03:36;94108.47;;;23.68;59.77
61870;BME280;47810;42.264;23.826;2023-07-13T06:06:04;94103.72;;;23.78;59.94
61870;BME280;47810;42.264;23.826;2023-07-13T06:08:36;94112.78;;;23.93;59.97
61870;BME280;47810;42.264;23.826;2023-07-13T06:11:17;94113.59;;;24.02;59.51
61870;BME280;47810;42.264;23.826;2023-07-13T06:13:42;94107.97;;;24.12;58.78
61870;BME280;47810;42.264;23.826;2023-07-13T06:16:08;94107.56;;;24.23;57.45
61870;BME280;47810;42.264;23.826;2023-07-13T06:18:34;94108.22;;;24.33;57.33
61870;BME280;47810;42.264;23.826;2023-07-13T06:21:01;94103.09;;;24.47;56.80
61870;BME280;47810;42.264;23.826;2023-07-13T06:23:32;94112.81;;;24.56;56.87
61870;BME280;47810;42.264;23.826;2023-07-13T06:28:28;94112.19;;;24.69;56.37
61870;BME280;47810;42.264;23.826;2023-07-13T06:30:53;94114.69;;;24.78;55.62
61870;BME280;47810;42.264;23.826;2023-07-13T06:33:20;94112.22;;;24.92;55.25
61870;BME280;47810;42.264;23.826;2023-07-13T06:35:47;94116.81;;;25.06;54.74
61870;BME280;47810;42.264;23.826;2023-07-13T06:40:46;94110.03;;;25.33;55.61
61870;BME280;47810;42.264;23.826;2023-07-13T06:43:13;94117.19;;;25.41;54.42
61870;BME280;47810;42.264;23.826;2023-07-13T06:45:42;94107.25;;;25.56;57.07
61870;BME280;47810;42.264;23.826;2023-07-13T06:48:11;94103.13;;;25.60;55.04
61870;BME280;47810;42.264;23.826;2023-07-13T06:50:36;94104.34;;;25.72;53.78
61870;BME280;47810;42.264;23.826;2023-07-13T06:53:03;94109.41;;;25.90;56.83
61870;BME280;47810;42.264;23.826;2023-07-13T06:55:29;94111.28;;;25.90;54.22
61870;BME280;47810;42.264;23.826;2023-07-13T06:57:57;94111.56;;;25.95;54.19
61870;BME280;47810;42.264;23.826;2023-07-13T07:00:23;94117.81;;;26.10;52.68
61870;BME280;47810;42.264;23.826;2023-07-13T07:02:50;94118.28;;;26.14;51.98
61870;BME280;47810;42.264;23.826;2023-07-13T07:05:15;94109.88;;;26.45;51.28
61870;BME280;47810;42.264;23.826;2023-07-13T07:07:43;94111.44;;;26.69;49.77
61870;BME280;47810;42.264;23.826;2023-07-13T07:10:08;94110.09;;;26.58;50.48
61870;BME280;47810;42.264;23.826;2023-07-13T07:12:34;94111.88;;;26.73;52.75
61870;BME280;47810;42.264;23.826;2023-07-13T07:15:01;94109.47;;;26.78;51.88
61870;BME280;47810;42.264;23.826;2023-07-13T07:17:27;94088.69;;;26.85;50.19
61870;BME280;47810;42.264;23.826;2023-07-13T07:19:52;94102.63;;;27.03;52.57
61870;BME280;47810;42.264;23.826;2023-07-13T07:22:23;94086.13;;;27.05;48.94
61870;BME280;47810;42.264;23.826;2023-07-13T07:24:53;94095.63;;;27.15;49.43
61870;BME280;47810;42.264;23.826;2023-07-13T07:27:19;94089.41;;;27.43;57.47
61870;BME280;47810;42.264;23.826;2023-07-13T07:29:46;94084.28;;;27.55;48.78
61870;BME280;47810;42.264;23.826;2023-07-13T07:32:13;94090.22;;;27.72;46.91
61870;BME280;47810;42.264;23.826;2023-07-13T07:34:39;94082.03;;;27.93;47.61
61870;BME280;47810;42.264;23.826;2023-07-13T07:37:09;94087.53;;;28.06;47.21
61870;BME280;47810;42.264;23.826;2023-07-13T07:39:37;94091.75;;;28.16;46.99
61870;BME280;47810;42.264;23.826;2023-07-13T07:42:05;94077.97;;;28.24;47.40
61870;BME280;47810;42.264;23.826;2023-07-13T07:44:33;94080.75;;;28.37;46.27
61870;BME280;47810;42.264;23.826;2023-07-13T07:49:29;94086.06;;;28.59;46.09
61870;BME280;47810;42.264;23.826;2023-07-13T07:51:54;94092.38;;;28.72;48.54
61870;BME280;47810;42.264;23.826;2023-07-13T07:54:20;94090.94;;;28.83;46.88
61870;BME280;47810;42.264;23.826;2023-07-13T07:56:46;94096.22;;;29.05;45.83
61870;BME280;47810;42.264;23.826;2023-07-13T07:59:12;94101.06;;;29.29;47.41
61870;BME280;47810;42.264;23.826;2023-07-13T08:01:38;94100.00;;;29.43;46.91
61870;BME280;47810;42.264;23.826;2023-07-13T08:04:08;94094.56;;;29.57;45.86
61870;BME280;47810;42.264;23.826;2023-07-13T08:06:35;94098.31;;;29.76;47.70
61870;BME280;47810;42.264;23.826;2023-07-13T08:09:03;94103.75;;;29.82;46.08
61870;BME280;47810;42.264;23.826;2023-07-13T08:11:29;94098.47;;;30.01;43.47
61870;BME280;47810;42.264;23.826;2023-07-13T08:13:56;94099.50;;;30.13;40.94
61870;BME280;47810;42.264;23.826;2023-07-13T08:16:22;94088.47;;;30.53;41.02
61870;BME280;47810;42.264;23.826;2023-07-13T08:18:54;94086.16;;;30.50;44.00
61870;BME280;47810;42.264;23.826;2023-07-13T08:21:21;94078.50;;;30.72;39.95
61870;BME280;47810;42.264;23.826;2023-07-13T08:23:49;94075.34;;;30.81;41.69
61870;BME280;47810;42.264;23.826;2023-07-13T08:28:43;94073.34;;;31.34;40.71
61870;BME280;47810;42.264;23.826;2023-07-13T08:31:09;94076.22;;;31.39;41.71
61870;BME280;47810;42.264;23.826;2023-07-13T08:33:36;94076.03;;;31.59;39.11
61870;BME280;47810;42.264;23.826;2023-07-13T08:36:08;94069.63;;;31.71;41.77
61870;BME280;47810;42.264;23.826;2023-07-13T08:38:44;94068.94;;;32.01;42.58
61870;BME280;47810;42.264;23.826;2023-07-13T08:41:19;94061.63;;;32.13;39.03
61870;BME280;47810;42.264;23.826;2023-07-13T08:43:47;94064.66;;;32.42;39.86
61870;BME280;47810;42.264;23.826;2023-07-13T08:49:01;94067.13;;;32.80;40.00
61870;BME280;47810;42.264;23.826;2023-07-13T08:51:40;94067.25;;;33.04;38.42
61870;BME280;47810;42.264;23.826;2023-07-13T08:56:45;94069.88;;;33.52;40.13
61870;BME280;47810;42.264;23.826;2023-07-13T08:59:17;94065.25;;;33.53;38.15
61870;BME280;47810;42.264;23.826;2023-07-13T09:01:47;94065.59;;;33.56;40.00
61870;BME280;47810;42.264;23.826;2023-07-13T09:04:21;94062.97;;;33.85;37.59
61870;BME280;47810;42.264;23.826;2023-07-13T09:12:51;94054.22;;;34.47;37.01
61870;BME280;47810;42.264;23.826;2023-07-13T09:14:47;94048.31;;;34.67;34.70
61870;BME280;47810;42.264;23.826;2023-07-13T09:17:18;94038.72;;;34.81;35.45
61870;BME280;47810;42.264;23.826;2023-07-13T09:19:46;94031.78;;;34.90;35.86
61870;BME280;47810;42.264;23.826;2023-07-13T09:22:15;94023.34;;;35.09;34.90
61870;BME280;47810;42.264;23.826;2023-07-13T09:27:44;94028.69;;;35.32;33.69
61870;BME280;47810;42.264;23.826;2023-07-13T09:32:45;94023.22;;;35.83;38.45
61870;BME280;47810;42.264;23.826;2023-07-13T09:35:14;94018.09;;;35.91;33.33
61870;BME280;47810;42.264;23.826;2023-07-13T09:37:40;94016.69;;;36.06;33.87
61870;BME280;47810;42.264;23.826;2023-07-13T09:40:24;94014.50;;;36.08;34.56
61870;BME280;47810;42.264;23.826;2023-07-13T09:42:52;94023.47;;;36.20;34.48
61870;BME280;47810;42.264;23.826;2023-07-13T09:45:26;94010.22;;;36.39;34.20
61870;BME280;47810;42.264;23.826;2023-07-13T09:47:59;94013.25;;;36.59;38.69
61870;BME280;47810;42.264;23.826;2023-07-13T09:50:24;94013.31;;;36.65;33.43
61870;BME280;47810;42.264;23.826;2023-07-13T09:52:51;94009.22;;;36.67;32.59
61870;BME280;47810;42.264;23.826;2023-07-13T09:55:30;94019.88;;;36.86;33.10
61870;BME280;47810;42.264;23.826;2023-07-13T09:57:55;94021.66;;;36.97;35.50
61870;BME280;47810;42.264;23.826;2023-07-13T10:00:23;94028.91;;;37.03;32.08
61870;BME280;47810;42.264;23.826;2023-07-13T10:03:14;94036.53;;;37.23;32.82
61870;BME280;47810;42.264;23.826;2023-07-13T10:05:42;94029.13;;;37.28;32.42
61870;BME280;47810;42.264;23.826;2023-07-13T10:08:16;94036.09;;;37.36;31.55
61870;BME280;47810;42.264;23.826;2023-07-13T10:10:41;94037.06;;;37.47;30.69
61870;BME280;47810;42.264;23.826;2023-07-13T10:13:20;94027.56;;;37.38;31.39
61870;BME280;47810;42.264;23.826;2023-07-13T10:15:49;94028.78;;;37.47;30.73
61870;BME280;47810;42.264;23.826;2023-07-13T10:18:15;94021.47;;;37.63;30.12
61870;BME280;47810;42.264;23.826;2023-07-13T10:20:42;94020.53;;;37.47;30.37
61870;BME280;47810;42.264;23.826;2023-07-13T10:23:11;94028.06;;;37.62;30.01
61870;BME280;47810;42.264;23.826;2023-07-13T10:25:41;94017.50;;;37.86;31.04
61870;BME280;47810;42.264;23.826;2023-07-13T10:28:31;94017.66;;;38.06;30.26
61870;BME280;47810;42.264;23.826;2023-07-13T10:30:56;94020.75;;;38.15;30.89
61870;BME280;47810;42.264;23.826;2023-07-13T10:33:23;94015.03;;;38.32;30.28
61870;BME280;47810;42.264;23.826;2023-07-13T10:35:50;94008.88;;;38.19;28.97
61870;BME280;47810;42.264;23.826;2023-07-13T10:38:19;94009.25;;;38.33;29.16
61870;BME280;47810;42.264;23.826;2023-07-13T10:41:02;94003.19;;;37.89;29.93
61870;BME280;47810;42.264;23.826;2023-07-13T10:43:32;93997.81;;;37.40;29.89
61870;BME280;47810;42.264;23.826;2023-07-13T10:46:02;93992.97;;;37.47;29.63
61870;BME280;47810;42.264;23.826;2023-07-13T10:48:29;93988.94;;;37.27;29.38
61870;BME280;47810;42.264;23.826;2023-07-13T10:50:57;93983.16;;;37.29;30.94
61870;BME280;47810;42.264;23.826;2023-07-13T10:53:28;93979.28;;;37.62;29.24
61870;BME280;47810;42.264;23.826;2023-07-13T10:55:59;93983.25;;;37.82;30.32
61870;BME280;47810;42.264;23.826;2023-07-13T10:58:44;93972.53;;;38.28;27.29
61870;BME280;47810;42.264;23.826;2023-07-13T11:01:15;93979.44;;;37.83;29.14
61870;BME280;47810;42.264;23.826;2023-07-13T11:03:54;93966.31;;;37.95;27.29
61870;BME280;47810;42.264;23.826;2023-07-13T11:12:26;93963.50;;;37.52;27.75
61870;BME280;47810;42.264;23.826;2023-07-13T11:18:04;93962.50;;;37.69;30.47
61870;BME280;47810;42.264;23.826;2023-07-13T11:20:50;93961.53;;;37.90;27.49
61870;BME280;47810;42.264;23.826;2023-07-13T11:23:26;93956.66;;;37.55;23.90
61870;BME280;47810;42.264;23.826;2023-07-13T11:25:58;93948.66;;;38.01;28.24
61870;BME280;47810;42.264;23.826;2023-07-13T11:28:30;93947.03;;;38.00;25.61
61870;BME280;47810;42.264;23.826;2023-07-13T11:33:45;93946.47;;;38.03;25.92
61870;BME280;47810;42.264;23.826;2023-07-13T11:36:14;93945.72;;;38.18;24.76
61870;BME280;47810;42.264;23.826;2023-07-13T11:39:02;93943.84;;;38.29;25.18
61870;BME280;47810;42.264;23.826;2023-07-13T11:41:34;93936.09;;;38.20;24.83
61870;BME280;47810;42.264;23.826;2023-07-13T11:46:52;93927.56;;;37.74;23.76
61870;BME280;47810;42.264;23.826;2023-07-13T11:49:22;93935.25;;;38.20;24.84
61870;BME280;47810;42.264;23.826;2023-07-13T11:51:47;93925.00;;;38.10;26.77
61870;BME280;47810;42.264;23.826;2023-07-13T11:54:33;93921.44;;;38.15;23.99
61870;BME280;47810;42.264;23.826;2023-07-13T11:57:37;93916.25;;;38.29;24.82
61870;BME280;47810;42.264;23.826;2023-07-13T11:59:54;93911.06;;;37.85;23.21
61870;BME280;47810;42.264;23.826;2023-07-13T12:02:31;93919.81;;;38.19;23.55
61870;BME280;47810;42.264;23.826;2023-07-13T12:08:07;93921.66;;;37.56;25.27
61870;BME280;47810;42.264;23.826;2023-07-13T12:10:33;93921.03;;;37.91;26.28
61870;BME280;47810;42.264;23.826;2023-07-13T12:13:03;93914.84;;;38.21;23.96
61870;BME280;47810;42.264;23.826;2023-07-13T12:15:44;93907.38;;;38.16;23.68
61870;BME280;47810;42.264;23.826;2023-07-13T12:20:40;93906.50;;;38.06;23.25
61870;BME280;47810;42.264;23.826;2023-07-13T12:23:28;93906.25;;;38.12;25.01
61870;BME280;47810;42.264;23.826;2023-07-13T12:25:55;93908.50;;;38.20;22.67
61870;BME280;47810;42.264;23.826;2023-07-13T12:28:34;93906.00;;;38.19;25.15
61870;BME280;47810;42.264;23.826;2023-07-13T12:31:01;93910.16;;;38.21;22.24
61870;BME280;47810;42.264;23.826;2023-07-13T12:33:31;93909.31;;;38.11;23.93
61870;BME280;47810;42.264;23.826;2023-07-13T12:35:59;93903.00;;;38.20;23.19
61870;BME280;47810;42.264;23.826;2023-07-13T12:38:27;93906.03;;;37.71;23.85
61870;BME280;47810;42.264;23.826;2023-07-13T12:40:53;93906.13;;;37.44;23.45
61870;BME280;47810;42.264;23.826;2023-07-13T12:43:23;93903.28;;;37.66;25.53
61870;BME280;47810;42.264;23.826;2023-07-13T12:45:59;93898.78;;;37.50;25.85
61870;BME280;47810;42.264;23.826;2023-07-13T12:48:25;93902.69;;;37.64;24.75
61870;BME280;47810;42.264;23.826;2023-07-13T12:50:51;93890.00;;;38.16;27.71
61870;BME280;47810;42.264;23.826;2023-07-13T12:53:29;93889.13;;;37.95;24.54
61870;BME280;47810;42.264;23.826;2023-07-13T12:55:58;93893.06;;;37.67;25.56
61870;BME280;47810;42.264;23.826;2023-07-13T12:58:28;93895.28;;;37.27;24.36
61870;BME280;47810;42.264;23.826;2023-07-13T13:00:58;93891.81;;;37.05;24.54
61870;BME280;47810;42.264;23.826;2023-07-13T13:05:56;93887.97;;;37.11;24.67
61870;BME280;47810;42.264;23.826;2023-07-13T13:08:25;93878.34;;;37.09;23.55
61870;BME280;47810;42.264;23.826;2023-07-13T13:10:50;93884.63;;;37.04;28.72
61870;BME280;47810;42.264;23.826;2023-07-13T13:13:16;93876.19;;;36.83;26.85
61870;BME280;47810;42.264;23.826;2023-07-13T13:15:42;93877.28;;;36.82;25.92
61870;BME280;47810;42.264;23.826;2023-07-13T13:18:17;93861.97;;;36.97;25.47
61870;BME280;47810;42.264;23.826;2023-07-13T13:20:43;93864.13;;;36.90;25.89
61870;BME280;47810;42.264;23.826;2023-07-13T13:23:11;93857.75;;;36.84;26.92
61870;BME280;47810;42.264;23.826;2023-07-13T13:25:38;93867.56;;;37.02;27.76
61870;BME280;47810;42.264;23.826;2023-07-13T13:28:03;93859.97;;;36.55;25.92
61870;BME280;47810;42.264;23.826;2023-07-13T13:30:29;93862.13;;;36.80;25.48
61870;BME280;47810;42.264;23.826;2023-07-13T13:32:58;93856.50;;;36.43;26.86
61870;BME280;47810;42.264;23.826;2023-07-13T13:35:23;93861.91;;;36.54;31.28
61870;BME280;47810;42.264;23.826;2023-07-13T13:37:49;93856.69;;;36.58;28.29
61870;BME280;47810;42.264;23.826;2023-07-13T13:40:17;93846.09;;;36.45;27.32
61870;BME280;47810;42.264;23.826;2023-07-13T13:42:43;93854.03;;;36.68;29.92
61870;BME280;47810;42.264;23.826;2023-07-13T13:45:09;93845.63;;;36.53;27.95
61870;BME280;47810;42.264;23.826;2023-07-13T13:47:35;93842.72;;;36.37;28.08
61870;BME280;47810;42.264;23.826;2023-07-13T13:50:09;93845.09;;;36.51;27.74
61870;BME280;47810;42.264;23.826;2023-07-13T13:52:35;93841.91;;;36.64;26.30
61870;BME280;47810;42.264;23.826;2023-07-13T13:55:00;93849.13;;;36.75;27.94
61870;BME280;47810;42.264;23.826;2023-07-13T13:57:26;93844.03;;;36.57;28.26
61870;BME280;47810;42.264;23.826;2023-07-13T13:59:51;93838.25;;;36.58;25.55
61870;BME280;47810;42.264;23.826;2023-07-13T14:02:25;93835.75;;;36.30;27.00
61870;BME280;47810;42.264;23.826;2023-07-13T14:04:55;93842.72;;;36.37;29.82
61870;BME280;47810;42.264;23.826;2023-07-13T14:07:21;93835.47;;;36.26;29.59
61870;BME280;47810;42.264;23.826;2023-07-13T14:09:47;93832.41;;;36.23;26.88
61870;BME280;47810;42.264;23.826;2023-07-13T14:12:13;93828.25;;;36.20;26.90
61870;BME280;47810;42.264;23.826;2023-07-13T14:14:38;93833.91;;;36.35;27.76
61870;BME280;47810;42.264;23.826;2023-07-13T14:17:04;93826.59;;;36.19;24.96
61870;BME280;47810;42.264;23.826;2023-07-13T14:19:30;93824.09;;;36.18;27.35
61870;BME280;47810;42.264;23.826;2023-07-13T14:21:55;93820.59;;;36.00;26.91
61870;BME280;47810;42.264;23.826;2023-07-13T14:24:21;93813.09;;;35.68;27.20
61870;BME280;47810;42.264;23.826;2023-07-13T14:26:47;93815.75;;;35.85;29.61
61870;BME280;47810;42.264;23.826;2023-07-13T14:29:13;93816.84;;;35.84;26.98
61870;BME280;47810;42.264;23.826;2023-07-13T14:31:40;93814.03;;;35.79;26.22
61870;BME280;47810;42.264;23.826;2023-07-13T14:34:07;93820.88;;;35.77;29.65
61870;BME280;47810;42.264;23.826;2023-07-13T14:36:33;93820.31;;;35.75;28.15
61870;BME280;47810;42.264;23.826;2023-07-13T14:39:00;93816.88;;;36.11;28.33
61870;BME280;47810;42.264;23.826;2023-07-13T14:41:26;93818.09;;;35.99;29.00